sensor_id;sensor_type;location;lat;lon;timestamp;P1;durP1;ratioP1;P2;durP2;ratioP2
42018;SDS011;27703;51.980;5.848;2023-03-19T00:02:06;0.80;;;0.20;;
42018;SDS011;27703;51.980;5.848;2023-03-19T00:04:33;0.75;;;0.20;;
42018;SDS011;27703;51.980;5.848;2023-03-19T00:06:58;0.63;;;0.30;;
42018;SDS011;27703;51.980;5.848;2023-03-19T00:09:25;0.47;;;0.10;;
42018;SDS011;27703;51.980;5.848;2023-03-19T00:11:51;1.13;;;0.20;;
42018;SDS011;27703;51.980;5.848;2023-03-19T00:14:16;0.25;;;0.10;;
42018;SDS011;27703;51.980;5.848;2023-03-19T00:16:42;0.60;;;0.10;;
42018;SDS011;27703;51.980;5.848;2023-03-19T00:19:08;1.15;;;0.10;;
42018;SDS011;27703;51.980;5.848;2023-03-19T00:21:34;0.55;;;0.20;;
42018;SDS011;27703;51.980;5.848;2023-03-19T00:24:00;0.52;;;0.10;;
42018;SDS011;27703;51.980;5.848;2023-03-19T00:26:27;0.55;;;0.10;;
42018;SDS011;27703;51.980;5.848;2023-03-19T00:28:54;0.20;;;0.10;;
42018;SDS011;27703;51.980;5.848;2023-03-19T00:31:21;0.70;;;0.10;;
42018;SDS011;27703;51.980;5.848;2023-03-19T00:33:47;1.92;;;0.17;;
42018;SDS011;27703;51.980;5.848;2023-03-19T00:36:13;0.63;;;0.10;;
42018;SDS011;27703;51.980;5.848;2023-03-19T00:38:40;0.68;;;0.10;;
42018;SDS011;27703;51.980;5.848;2023-03-19T00:41:07;1.65;;;0.10;;
42018;SDS011;27703;51.980;5.848;2023-03-19T00:43:32;0.52;;;0.10;;
42018;SDS011;27703;51.980;5.848;2023-03-19T00:45:58;0.40;;;0.10;;
42018;SDS011;27703;51.980;5.848;2023-03-19T00:48:24;0.40;;;0.20;;
42018;SDS011;27703;51.980;5.848;2023-03-19T00:50:50;0.43;;;0.13;;
42018;SDS011;27703;51.980;5.848;2023-03-19T00:53:16;1.17;;;0.22;;
42018;SDS011;27703;51.980;5.848;2023-03-19T00:55:41;0.50;;;0.15;;
42018;SDS011;27703;51.980;5.848;2023-03-19T00:58:07;1.35;;;0.20;;
42018;SDS011;27703;51.980;5.848;2023-03-19T01:00:34;0.57;;;0.20;;
42018;SDS011;27703;51.980;5.848;2023-03-19T01:03:01;1.05;;;0.30;;
42018;SDS011;27703;51.980;5.848;2023-03-19T01:05:27;0.77;;;0.25;;
42018;SDS011;27703;51.980;5.848;2023-03-19T01:07:53;0.73;;;0.20;;
42018;SDS011;27703;51.980;5.848;2023-03-19T01:10:20;0.52;;;0.20;;
42018;SDS011;27703;51.980;5.848;2023-03-19T01:12:47;0.77;;;0.20;;
42018;SDS011;27703;51.980;5.848;2023-03-19T01:15:14;1.63;;;0.20;;
42018;SDS011;27703;51.980;5.848;2023-03-19T01:17:40;1.20;;;0.30;;
42018;SDS011;27703;51.980;5.848;2023-03-19T01:20:06;0.80;;;0.20;;
42018;SDS011;27703;51.980;5.848;2023-03-19T01:22:37;0.93;;;0.20;;
42018;SDS011;27703;51.980;5.848;2023-03-19T01:25:05;0.45;;;0.20;;
42018;SDS011;27703;51.980;5.848;2023-03-19T01:27:31;0.88;;;0.20;;
42018;SDS011;27703;51.980;5.848;2023-03-19T01:29:57;1.33;;;0.20;;
42018;SDS011;27703;51.980;5.848;2023-03-19T01:32:22;1.60;;;0.30;;
42018;SDS011;27703;51.980;5.848;2023-03-19T01:34:48;0.63;;;0.20;;
42018;SDS011;27703;51.980;5.848;2023-03-19T01:37:14;2.15;;;0.20;;
42018;SDS011;27703;51.980;5.848;2023-03-19T01:39:39;1.23;;;0.30;;
42018;SDS011;27703;51.980;5.848;2023-03-19T01:42:05;1.08;;;0.20;;
42018;SDS011;27703;51.980;5.848;2023-03-19T01:47:00;0.77;;;0.30;;
42018;SDS011;27703;51.980;5.848;2023-03-19T01:49:31;0.98;;;0.20;;
42018;SDS011;27703;51.980;5.848;2023-03-19T01:51:57;0.40;;;0.20;;
42018;SDS011;27703;51.980;5.848;2023-03-19T01:54:26;1.42;;;0.20;;
42018;SDS011;27703;51.980;5.848;2023-03-19T01:56:57;1.13;;;0.20;;
42018;SDS011;27703;51.980;5.848;2023-03-19T02:01:56;2.45;;;0.35;;
42018;SDS011;27703;51.980;5.848;2023-03-19T02:04:25;0.80;;;0.25;;
42018;SDS011;27703;51.980;5.848;2023-03-19T02:06:56;0.57;;;0.22;;
42018;SDS011;27703;51.980;5.848;2023-03-19T02:09:24;2.03;;;0.63;;
42018;SDS011;27703;51.980;5.848;2023-03-19T02:11:51;1.15;;;0.30;;
42018;SDS011;27703;51.980;5.848;2023-03-19T02:14:18;1.55;;;0.40;;
42018;SDS011;27703;51.980;5.848;2023-03-19T02:16:43;1.98;;;0.40;;
42018;SDS011;27703;51.980;5.848;2023-03-19T02:19:12;1.27;;;0.47;;
42018;SDS011;27703;51.980;5.848;2023-03-19T02:21:45;1.77;;;0.30;;
42018;SDS011;27703;51.980;5.848;2023-03-19T02:24:12;0.77;;;0.40;;
42018;SDS011;27703;51.980;5.848;2023-03-19T02:26:43;0.85;;;0.30;;
42018;SDS011;27703;51.980;5.848;2023-03-19T02:29:10;0.47;;;0.20;;
42018;SDS011;27703;51.980;5.848;2023-03-19T02:31:36;1.17;;;0.30;;
42018;SDS011;27703;51.980;5.848;2023-03-19T02:34:14;1.30;;;0.30;;
42018;SDS011;27703;51.980;5.848;2023-03-19T02:36:52;0.85;;;0.30;;
42018;SDS011;27703;51.980;5.848;2023-03-19T02:39:24;1.73;;;0.40;;
42018;SDS011;27703;51.980;5.848;2023-03-19T02:41:51;1.35;;;0.25;;
42018;SDS011;27703;51.980;5.848;2023-03-19T02:44:18;0.98;;;0.30;;
42018;SDS011;27703;51.980;5.848;2023-03-19T02:46:44;1.60;;;0.40;;
42018;SDS011;27703;51.980;5.848;2023-03-19T02:49:10;1.10;;;0.30;;
42018;SDS011;27703;51.980;5.848;2023-03-19T02:51:36;0.75;;;0.35;;
42018;SDS011;27703;51.980;5.848;2023-03-19T02:54:02;0.52;;;0.30;;
42018;SDS011;27703;51.980;5.848;2023-03-19T02:56:28;0.55;;;0.25;;
42018;SDS011;27703;51.980;5.848;2023-03-19T02:58:54;1.00;;;0.30;;
42018;SDS011;27703;51.980;5.848;2023-03-19T03:01:19;1.23;;;0.30;;
42018;SDS011;27703;51.980;5.848;2023-03-19T03:03:45;2.28;;;0.40;;
42018;SDS011;27703;51.980;5.848;2023-03-19T03:06:11;1.02;;;0.35;;
42018;SDS011;27703;51.980;5.848;2023-03-19T03:08:36;0.98;;;0.40;;
42018;SDS011;27703;51.980;5.848;2023-03-19T03:11:02;0.93;;;0.40;;
42018;SDS011;27703;51.980;5.848;2023-03-19T03:13:28;1.60;;;0.32;;
42018;SDS011;27703;51.980;5.848;2023-03-19T03:15:53;1.08;;;0.40;;
42018;SDS011;27703;51.980;5.848;2023-03-19T03:18:19;1.58;;;0.50;;
42018;SDS011;27703;51.980;5.848;2023-03-19T03:20:45;1.35;;;0.50;;
42018;SDS011;27703;51.980;5.848;2023-03-19T03:23:11;2.28;;;0.40;;
42018;SDS011;27703;51.980;5.848;2023-03-19T03:25:37;1.70;;;0.47;;
42018;SDS011;27703;51.980;5.848;2023-03-19T03:28:02;1.25;;;0.40;;
42018;SDS011;27703;51.980;5.848;2023-03-19T03:30:28;1.50;;;0.50;;
42018;SDS011;27703;51.980;5.848;2023-03-19T03:32:53;1.38;;;0.50;;
42018;SDS011;27703;51.980;5.848;2023-03-19T03:35:19;0.95;;;0.30;;
42018;SDS011;27703;51.980;5.848;2023-03-19T03:37:47;1.25;;;0.38;;
42018;SDS011;27703;51.980;5.848;2023-03-19T03:40:14;1.05;;;0.50;;
42018;SDS011;27703;51.980;5.848;2023-03-19T03:42:40;1.17;;;0.50;;
42018;SDS011;27703;51.980;5.848;2023-03-19T03:45:06;1.50;;;0.60;;
42018;SDS011;27703;51.980;5.848;2023-03-19T03:47:33;1.10;;;0.60;;
42018;SDS011;27703;51.980;5.848;2023-03-19T03:49:59;1.40;;;0.55;;
42018;SDS011;27703;51.980;5.848;2023-03-19T03:52:25;1.52;;;0.60;;
42018;SDS011;27703;51.980;5.848;2023-03-19T03:54:55;3.58;;;0.60;;
42018;SDS011;27703;51.980;5.848;2023-03-19T03:57:24;1.42;;;0.50;;
42018;SDS011;27703;51.980;5.848;2023-03-19T03:59:51;1.42;;;0.65;;
42018;SDS011;27703;51.980;5.848;2023-03-19T04:02:17;1.33;;;0.70;;
42018;SDS011;27703;51.980;5.848;2023-03-19T04:04:42;1.80;;;0.60;;
42018;SDS011;27703;51.980;5.848;2023-03-19T04:07:08;1.27;;;0.52;;
42018;SDS011;27703;51.980;5.848;2023-03-19T04:09:34;1.83;;;0.77;;
42018;SDS011;27703;51.980;5.848;2023-03-19T04:12:00;1.55;;;0.93;;
42018;SDS011;27703;51.980;5.848;2023-03-19T04:14:26;1.13;;;0.52;;
42018;SDS011;27703;51.980;5.848;2023-03-19T04:16:51;1.50;;;0.60;;
42018;SDS011;27703;51.980;5.848;2023-03-19T04:19:17;1.55;;;0.57;;
42018;SDS011;27703;51.980;5.848;2023-03-19T04:21:44;1.80;;;0.90;;
42018;SDS011;27703;51.980;5.848;2023-03-19T04:24:09;2.10;;;0.90;;
42018;SDS011;27703;51.980;5.848;2023-03-19T04:26:36;1.83;;;1.02;;
42018;SDS011;27703;51.980;5.848;2023-03-19T04:29:01;1.73;;;0.90;;
42018;SDS011;27703;51.980;5.848;2023-03-19T04:31:27;1.65;;;0.80;;
42018;SDS011;27703;51.980;5.848;2023-03-19T04:33:53;1.77;;;0.98;;
42018;SDS011;27703;51.980;5.848;2023-03-19T04:36:19;2.20;;;0.90;;
42018;SDS011;27703;51.980;5.848;2023-03-19T04:38:45;2.28;;;0.98;;
42018;SDS011;27703;51.980;5.848;2023-03-19T04:41:10;1.70;;;0.82;;
42018;SDS011;27703;51.980;5.848;2023-03-19T04:43:37;2.90;;;0.98;;
42018;SDS011;27703;51.980;5.848;2023-03-19T04:46:03;3.95;;;1.77;;
42018;SDS011;27703;51.980;5.848;2023-03-19T04:48:32;2.53;;;1.05;;
42018;SDS011;27703;51.980;5.848;2023-03-19T04:51:00;3.70;;;1.67;;
42018;SDS011;27703;51.980;5.848;2023-03-19T04:53:27;2.42;;;1.13;;
42018;SDS011;27703;51.980;5.848;2023-03-19T04:55:53;2.63;;;1.30;;
42018;SDS011;27703;51.980;5.848;2023-03-19T04:58:18;2.08;;;1.50;;
42018;SDS011;27703;51.980;5.848;2023-03-19T05:00:45;4.13;;;1.33;;
42018;SDS011;27703;51.980;5.848;2023-03-19T05:03:11;5.53;;;1.95;;
42018;SDS011;27703;51.980;5.848;2023-03-19T05:05:38;4.57;;;2.45;;
42018;SDS011;27703;51.980;5.848;2023-03-19T05:08:03;4.55;;;2.67;;
42018;SDS011;27703;51.980;5.848;2023-03-19T05:10:29;5.03;;;2.72;;
42018;SDS011;27703;51.980;5.848;2023-03-19T05:12:56;5.18;;;2.80;;
42018;SDS011;27703;51.980;5.848;2023-03-19T05:15:21;4.72;;;3.67;;
42018;SDS011;27703;51.980;5.848;2023-03-19T05:17:47;5.10;;;3.42;;
42018;SDS011;27703;51.980;5.848;2023-03-19T05:20:13;6.63;;;4.70;;
42018;SDS011;27703;51.980;5.848;2023-03-19T05:22:39;8.02;;;6.45;;
42018;SDS011;27703;51.980;5.848;2023-03-19T05:25:05;9.82;;;7.00;;
42018;SDS011;27703;51.980;5.848;2023-03-19T05:27:31;7.53;;;5.97;;
42018;SDS011;27703;51.980;5.848;2023-03-19T05:29:57;9.13;;;6.28;;
42018;SDS011;27703;51.980;5.848;2023-03-19T05:32:24;7.32;;;5.30;;
42018;SDS011;27703;51.980;5.848;2023-03-19T05:34:49;6.88;;;5.43;;
42018;SDS011;27703;51.980;5.848;2023-03-19T05:37:15;8.35;;;6.05;;
42018;SDS011;27703;51.980;5.848;2023-03-19T05:39:41;7.22;;;5.65;;
42018;SDS011;27703;51.980;5.848;2023-03-19T05:42:06;8.27;;;5.90;;
42018;SDS011;27703;51.980;5.848;2023-03-19T05:44:32;8.00;;;5.57;;
42018;SDS011;27703;51.980;5.848;2023-03-19T05:46:58;10.38;;;7.70;;
42018;SDS011;27703;51.980;5.848;2023-03-19T05:49:23;10.05;;;7.90;;
42018;SDS011;27703;51.980;5.848;2023-03-19T05:51:49;13.02;;;8.93;;
42018;SDS011;27703;51.980;5.848;2023-03-19T05:54:15;12.13;;;8.55;;
42018;SDS011;27703;51.980;5.848;2023-03-19T05:56:41;11.43;;;8.70;;
42018;SDS011;27703;51.980;5.848;2023-03-19T05:59:06;10.93;;;9.13;;
42018;SDS011;27703;51.980;5.848;2023-03-19T06:01:32;14.20;;;9.95;;
42018;SDS011;27703;51.980;5.848;2023-03-19T06:03:57;15.05;;;10.43;;
42018;SDS011;27703;51.980;5.848;2023-03-19T06:06:23;19.08;;;14.30;;
42018;SDS011;27703;51.980;5.848;2023-03-19T06:08:49;14.88;;;12.75;;
42018;SDS011;27703;51.980;5.848;2023-03-19T06:11:15;16.08;;;11.50;;
42018;SDS011;27703;51.980;5.848;2023-03-19T06:13:40;13.70;;;10.10;;
42018;SDS011;27703;51.980;5.848;2023-03-19T06:16:07;15.13;;;11.02;;
42018;SDS011;27703;51.980;5.848;2023-03-19T06:18:33;16.30;;;11.32;;
42018;SDS011;27703;51.980;5.848;2023-03-19T06:20:58;20.05;;;11.50;;
42018;SDS011;27703;51.980;5.848;2023-03-19T06:23:24;15.40;;;11.90;;
42018;SDS011;27703;51.980;5.848;2023-03-19T06:25:50;20.65;;;14.15;;
42018;SDS011;27703;51.980;5.848;2023-03-19T06:28:15;17.92;;;12.77;;
42018;SDS011;27703;51.980;5.848;2023-03-19T06:30:41;25.67;;;15.68;;
42018;SDS011;27703;51.980;5.848;2023-03-19T06:33:07;20.00;;;13.43;;
42018;SDS011;27703;51.980;5.848;2023-03-19T06:35:32;23.02;;;15.95;;
42018;SDS011;27703;51.980;5.848;2023-03-19T06:37:58;20.85;;;14.68;;
42018;SDS011;27703;51.980;5.848;2023-03-19T06:40:23;24.48;;;14.18;;
42018;SDS011;27703;51.980;5.848;2023-03-19T06:42:49;18.75;;;12.77;;
42018;SDS011;27703;51.980;5.848;2023-03-19T06:45:15;16.70;;;11.82;;
42018;SDS011;27703;51.980;5.848;2023-03-19T06:47:42;19.15;;;12.05;;
42018;SDS011;27703;51.980;5.848;2023-03-19T06:50:11;15.88;;;11.65;;
42018;SDS011;27703;51.980;5.848;2023-03-19T06:52:38;15.35;;;10.75;;
42018;SDS011;27703;51.980;5.848;2023-03-19T06:55:04;13.90;;;10.10;;
42018;SDS011;27703;51.980;5.848;2023-03-19T06:57:32;16.85;;;10.55;;
42018;SDS011;27703;51.980;5.848;2023-03-19T06:59:57;17.63;;;11.40;;
42018;SDS011;27703;51.980;5.848;2023-03-19T07:02:23;20.98;;;15.75;;
42018;SDS011;27703;51.980;5.848;2023-03-19T07:04:49;19.95;;;14.77;;
42018;SDS011;27703;51.980;5.848;2023-03-19T07:07:14;18.85;;;14.48;;
42018;SDS011;27703;51.980;5.848;2023-03-19T07:09:40;16.73;;;13.25;;
42018;SDS011;27703;51.980;5.848;2023-03-19T07:12:06;18.75;;;13.32;;
42018;SDS011;27703;51.980;5.848;2023-03-19T07:14:31;21.65;;;14.48;;
42018;SDS011;27703;51.980;5.848;2023-03-19T07:16:57;19.35;;;13.57;;
42018;SDS011;27703;51.980;5.848;2023-03-19T07:19:23;16.38;;;13.27;;
42018;SDS011;27703;51.980;5.848;2023-03-19T07:21:48;15.90;;;12.25;;
42018;SDS011;27703;51.980;5.848;2023-03-19T07:24:14;15.32;;;11.57;;
42018;SDS011;27703;51.980;5.848;2023-03-19T07:26:40;17.67;;;11.07;;
42018;SDS011;27703;51.980;5.848;2023-03-19T07:29:06;11.52;;;9.57;;
42018;SDS011;27703;51.980;5.848;2023-03-19T07:31:32;13.75;;;9.13;;
42018;SDS011;27703;51.980;5.848;2023-03-19T07:33:57;14.13;;;8.60;;
42018;SDS011;27703;51.980;5.848;2023-03-19T07:36:23;10.80;;;8.80;;
42018;SDS011;27703;51.980;5.848;2023-03-19T07:38:48;10.18;;;7.15;;
42018;SDS011;27703;51.980;5.848;2023-03-19T07:41:14;11.63;;;7.80;;
42018;SDS011;27703;51.980;5.848;2023-03-19T07:43:40;12.10;;;7.82;;
42018;SDS011;27703;51.980;5.848;2023-03-19T07:46:06;14.23;;;9.75;;
42018;SDS011;27703;51.980;5.848;2023-03-19T07:48:31;15.45;;;10.70;;
42018;SDS011;27703;51.980;5.848;2023-03-19T07:50:57;18.95;;;11.23;;
42018;SDS011;27703;51.980;5.848;2023-03-19T07:53:23;17.15;;;11.73;;
42018;SDS011;27703;51.980;5.848;2023-03-19T07:55:49;16.95;;;11.18;;
42018;SDS011;27703;51.980;5.848;2023-03-19T07:58:15;14.45;;;10.68;;
42018;SDS011;27703;51.980;5.848;2023-03-19T08:00:41;17.77;;;12.07;;
42018;SDS011;27703;51.980;5.848;2023-03-19T08:03:06;16.60;;;11.38;;
42018;SDS011;27703;51.980;5.848;2023-03-19T08:05:32;18.73;;;12.05;;
42018;SDS011;27703;51.980;5.848;2023-03-19T08:07:58;16.45;;;12.18;;
42018;SDS011;27703;51.980;5.848;2023-03-19T08:10:23;13.85;;;10.98;;
42018;SDS011;27703;51.980;5.848;2023-03-19T08:12:49;17.63;;;12.23;;
42018;SDS011;27703;51.980;5.848;2023-03-19T08:15:14;12.18;;;10.35;;
42018;SDS011;27703;51.980;5.848;2023-03-19T08:17:40;17.67;;;12.20;;
42018;SDS011;27703;51.980;5.848;2023-03-19T08:20:07;15.75;;;12.07;;
42018;SDS011;27703;51.980;5.848;2023-03-19T08:22:35;16.10;;;12.32;;
42018;SDS011;27703;51.980;5.848;2023-03-19T08:25:01;18.50;;;11.60;;
42018;SDS011;27703;51.980;5.848;2023-03-19T08:27:28;18.85;;;14.65;;
42018;SDS011;27703;51.980;5.848;2023-03-19T08:29:55;21.95;;;14.80;;
42018;SDS011;27703;51.980;5.848;2023-03-19T08:32:21;18.52;;;14.52;;
42018;SDS011;27703;51.980;5.848;2023-03-19T08:34:47;18.08;;;13.80;;
42018;SDS011;27703;51.980;5.848;2023-03-19T08:37:13;16.05;;;12.48;;
42018;SDS011;27703;51.980;5.848;2023-03-19T08:39:38;15.73;;;12.68;;
42018;SDS011;27703;51.980;5.848;2023-03-19T08:42:04;16.13;;;11.68;;
42018;SDS011;27703;51.980;5.848;2023-03-19T08:44:30;19.15;;;14.55;;
42018;SDS011;27703;51.980;5.848;2023-03-19T08:46:56;22.42;;;15.10;;
42018;SDS011;27703;51.980;5.848;2023-03-19T08:49:21;20.85;;;16.58;;
42018;SDS011;27703;51.980;5.848;2023-03-19T08:51:47;21.10;;;15.95;;
42018;SDS011;27703;51.980;5.848;2023-03-19T08:54:13;25.38;;;19.48;;
42018;SDS011;27703;51.980;5.848;2023-03-19T08:56:39;26.20;;;18.65;;
42018;SDS011;27703;51.980;5.848;2023-03-19T08:59:04;24.52;;;19.13;;
42018;SDS011;27703;51.980;5.848;2023-03-19T09:01:30;20.42;;;17.55;;
42018;SDS011;27703;51.980;5.848;2023-03-19T09:03:56;20.55;;;16.77;;
42018;SDS011;27703;51.980;5.848;2023-03-19T09:06:21;19.80;;;16.45;;
42018;SDS011;27703;51.980;5.848;2023-03-19T09:08:47;19.98;;;16.15;;
42018;SDS011;27703;51.980;5.848;2023-03-19T09:11:12;21.05;;;16.13;;
42018;SDS011;27703;51.980;5.848;2023-03-19T09:13:40;22.55;;;15.65;;
42018;SDS011;27703;51.980;5.848;2023-03-19T09:16:06;21.27;;;15.45;;
42018;SDS011;27703;51.980;5.848;2023-03-19T09:18:32;21.48;;;15.50;;
42018;SDS011;27703;51.980;5.848;2023-03-19T09:20:58;21.67;;;15.70;;
42018;SDS011;27703;51.980;5.848;2023-03-19T09:23:24;21.40;;;15.13;;
42018;SDS011;27703;51.980;5.848;2023-03-19T09:25:50;24.13;;;16.77;;
42018;SDS011;27703;51.980;5.848;2023-03-19T09:28:17;20.73;;;16.20;;
42018;SDS011;27703;51.980;5.848;2023-03-19T09:30:46;22.63;;;16.73;;
42018;SDS011;27703;51.980;5.848;2023-03-19T09:33:13;21.20;;;15.95;;
42018;SDS011;27703;51.980;5.848;2023-03-19T09:35:39;21.92;;;15.93;;
42018;SDS011;27703;51.980;5.848;2023-03-19T09:38:05;22.17;;;16.55;;
42018;SDS011;27703;51.980;5.848;2023-03-19T09:40:35;20.42;;;15.80;;
42018;SDS011;27703;51.980;5.848;2023-03-19T09:43:04;15.93;;;14.23;;
42018;SDS011;27703;51.980;5.848;2023-03-19T09:45:46;17.17;;;15.23;;
42018;SDS011;27703;51.980;5.848;2023-03-19T09:48:18;20.08;;;15.15;;
42018;SDS011;27703;51.980;5.848;2023-03-19T09:50:58;18.20;;;15.40;;
42018;SDS011;27703;51.980;5.848;2023-03-19T09:56:04;17.10;;;15.30;;
42018;SDS011;27703;51.980;5.848;2023-03-19T09:58:33;20.33;;;15.20;;
42018;SDS011;27703;51.980;5.848;2023-03-19T10:01:00;21.77;;;18.65;;
42018;SDS011;27703;51.980;5.848;2023-03-19T10:03:42;17.65;;;15.85;;
42018;SDS011;27703;51.980;5.848;2023-03-19T10:14:45;16.70;;;14.45;;
42018;SDS011;27703;51.980;5.848;2023-03-19T10:17:34;21.58;;;16.20;;
42018;SDS011;27703;51.980;5.848;2023-03-19T10:22:50;23.38;;;20.17;;
42018;SDS011;27703;51.980;5.848;2023-03-19T10:25:24;26.33;;;20.02;;
42018;SDS011;27703;51.980;5.848;2023-03-19T10:27:54;22.65;;;20.25;;
42018;SDS011;27703;51.980;5.848;2023-03-19T10:30:24;23.65;;;19.98;;
42018;SDS011;27703;51.980;5.848;2023-03-19T10:32:59;24.25;;;20.20;;
42018;SDS011;27703;51.980;5.848;2023-03-19T10:35:46;22.77;;;19.88;;
42018;SDS011;27703;51.980;5.848;2023-03-19T10:38:19;25.00;;;18.95;;
42018;SDS011;27703;51.980;5.848;2023-03-19T10:43:57;28.05;;;22.85;;
42018;SDS011;27703;51.980;5.848;2023-03-19T10:46:26;26.40;;;23.00;;
42018;SDS011;27703;51.980;5.848;2023-03-19T10:48:51;24.98;;;20.35;;
42018;SDS011;27703;51.980;5.848;2023-03-19T10:51:21;29.85;;;23.02;;
42018;SDS011;27703;51.980;5.848;2023-03-19T10:53:51;28.50;;;23.85;;
42018;SDS011;27703;51.980;5.848;2023-03-19T10:56:21;28.75;;;23.40;;
42018;SDS011;27703;51.980;5.848;2023-03-19T10:59:02;28.58;;;24.42;;
42018;SDS011;27703;51.980;5.848;2023-03-19T11:01:33;27.95;;;22.33;;
42018;SDS011;27703;51.980;5.848;2023-03-19T11:04:11;27.60;;;23.15;;
42018;SDS011;27703;51.980;5.848;2023-03-19T11:06:40;30.42;;;25.20;;
42018;SDS011;27703;51.980;5.848;2023-03-19T11:11:35;22.50;;;20.10;;
42018;SDS011;27703;51.980;5.848;2023-03-19T11:14:11;26.67;;;20.95;;
42018;SDS011;27703;51.980;5.848;2023-03-19T11:16:47;28.55;;;20.30;;
42018;SDS011;27703;51.980;5.848;2023-03-19T11:19:16;26.70;;;20.67;;
42018;SDS011;27703;51.980;5.848;2023-03-19T11:24:47;26.75;;;19.08;;
42018;SDS011;27703;51.980;5.848;2023-03-19T11:27:26;21.73;;;19.33;;
42018;SDS011;27703;51.980;5.848;2023-03-19T11:29:53;25.83;;;19.02;;
42018;SDS011;27703;51.980;5.848;2023-03-19T11:35:16;24.27;;;19.88;;
42018;SDS011;27703;51.980;5.848;2023-03-19T11:37:56;27.90;;;21.08;;
42018;SDS011;27703;51.980;5.848;2023-03-19T11:45:48;28.95;;;20.30;;
42018;SDS011;27703;51.980;5.848;2023-03-19T11:48:46;28.90;;;20.52;;
42018;SDS011;27703;51.980;5.848;2023-03-19T11:51:24;25.00;;;19.52;;
42018;SDS011;27703;51.980;5.848;2023-03-19T11:53:58;29.38;;;20.30;;
42018;SDS011;27703;51.980;5.848;2023-03-19T12:15:59;22.13;;;14.45;;
42018;SDS011;27703;51.980;5.848;2023-03-19T12:27:43;23.98;;;14.13;;
42018;SDS011;27703;51.980;5.848;2023-03-19T12:35:34;24.95;;;14.02;;
42018;SDS011;27703;51.980;5.848;2023-03-19T12:48:55;18.30;;;11.35;;
42018;SDS011;27703;51.980;5.848;2023-03-19T12:51:42;18.75;;;12.27;;
42018;SDS011;27703;51.980;5.848;2023-03-19T12:54:15;17.60;;;9.85;;
42018;SDS011;27703;51.980;5.848;2023-03-19T12:56:48;16.98;;;9.90;;
42018;SDS011;27703;51.980;5.848;2023-03-19T12:59:27;17.88;;;9.80;;
42018;SDS011;27703;51.980;5.848;2023-03-19T13:04:33;14.30;;;9.57;;
42018;SDS011;27703;51.980;5.848;2023-03-19T13:09:45;13.75;;;8.68;;
42018;SDS011;27703;51.980;5.848;2023-03-19T13:12:28;17.33;;;8.10;;
42018;SDS011;27703;51.980;5.848;2023-03-19T13:15:10;21.10;;;10.85;;
42018;SDS011;27703;51.980;5.848;2023-03-19T13:20:28;20.67;;;10.87;;
42018;SDS011;27703;51.980;5.848;2023-03-19T13:23:12;17.20;;;10.40;;
42018;SDS011;27703;51.980;5.848;2023-03-19T13:25:48;15.68;;;9.95;;
42018;SDS011;27703;51.980;5.848;2023-03-19T13:28:21;14.13;;;9.32;;
42018;SDS011;27703;51.980;5.848;2023-03-19T13:30:59;13.38;;;9.30;;
42018;SDS011;27703;51.980;5.848;2023-03-19T13:33:47;17.92;;;9.40;;
42018;SDS011;27703;51.980;5.848;2023-03-19T13:36:17;17.15;;;8.80;;
42018;SDS011;27703;51.980;5.848;2023-03-19T13:38:43;15.95;;;9.40;;
42018;SDS011;27703;51.980;5.848;2023-03-19T13:43:56;14.85;;;9.35;;
42018;SDS011;27703;51.980;5.848;2023-03-19T13:46:29;12.38;;;8.48;;
42018;SDS011;27703;51.980;5.848;2023-03-19T13:49:06;13.45;;;6.97;;
42018;SDS011;27703;51.980;5.848;2023-03-19T13:51:48;16.65;;;7.55;;
42018;SDS011;27703;51.980;5.848;2023-03-19T13:54:15;16.40;;;9.02;;
42018;SDS011;27703;51.980;5.848;2023-03-19T13:59:29;12.77;;;6.43;;
42018;SDS011;27703;51.980;5.848;2023-03-19T14:01:59;11.95;;;7.03;;
42018;SDS011;27703;51.980;5.848;2023-03-19T14:04:29;12.05;;;8.02;;
42018;SDS011;27703;51.980;5.848;2023-03-19T14:07:08;13.27;;;6.88;;
42018;SDS011;27703;51.980;5.848;2023-03-19T14:09:38;10.98;;;7.03;;
42018;SDS011;27703;51.980;5.848;2023-03-19T14:14:57;10.25;;;6.18;;
42018;SDS011;27703;51.980;5.848;2023-03-19T14:17:39;11.18;;;5.93;;
42018;SDS011;27703;51.980;5.848;2023-03-19T14:22:39;8.15;;;5.18;;
42018;SDS011;27703;51.980;5.848;2023-03-19T14:25:27;6.63;;;4.10;;
42018;SDS011;27703;51.980;5.848;2023-03-19T14:28:14;10.23;;;5.22;;
42018;SDS011;27703;51.980;5.848;2023-03-19T14:30:45;7.85;;;4.80;;
42018;SDS011;27703;51.980;5.848;2023-03-19T14:33:16;12.60;;;7.68;;
42018;SDS011;27703;51.980;5.848;2023-03-19T14:35:50;13.48;;;6.82;;
42018;SDS011;27703;51.980;5.848;2023-03-19T14:38:23;9.65;;;6.18;;
42018;SDS011;27703;51.980;5.848;2023-03-19T14:40:57;10.48;;;6.55;;
42018;SDS011;27703;51.980;5.848;2023-03-19T14:43:36;11.93;;;5.50;;
42018;SDS011;27703;51.980;5.848;2023-03-19T14:46:27;10.13;;;5.30;;
42018;SDS011;27703;51.980;5.848;2023-03-19T14:51:56;9.15;;;5.35;;
42018;SDS011;27703;51.980;5.848;2023-03-19T14:57:25;10.18;;;6.95;;
42018;SDS011;27703;51.980;5.848;2023-03-19T14:59:53;12.07;;;7.32;;
42018;SDS011;27703;51.980;5.848;2023-03-19T15:02:21;8.98;;;6.78;;
42018;SDS011;27703;51.980;5.848;2023-03-19T15:05:01;8.93;;;6.30;;
42018;SDS011;27703;51.980;5.848;2023-03-19T15:07:52;9.85;;;7.40;;
42018;SDS011;27703;51.980;5.848;2023-03-19T15:10:21;10.68;;;6.22;;
42018;SDS011;27703;51.980;5.848;2023-03-19T15:15:41;14.65;;;6.82;;
42018;SDS011;27703;51.980;5.848;2023-03-19T15:18:24;12.35;;;7.88;;
42018;SDS011;27703;51.980;5.848;2023-03-19T15:20:51;15.43;;;8.95;;
42018;SDS011;27703;51.980;5.848;2023-03-19T15:23:19;16.98;;;9.43;;
42018;SDS011;27703;51.980;5.848;2023-03-19T15:25:59;18.23;;;10.50;;
42018;SDS011;27703;51.980;5.848;2023-03-19T15:28:29;12.25;;;9.45;;
42018;SDS011;27703;51.980;5.848;2023-03-19T15:30:59;13.20;;;8.65;;
42018;SDS011;27703;51.980;5.848;2023-03-19T15:33:32;20.48;;;8.35;;
42018;SDS011;27703;51.980;5.848;2023-03-19T15:36:03;8.13;;;5.47;;
42018;SDS011;27703;51.980;5.848;2023-03-19T15:41:09;10.00;;;6.13;;
42018;SDS011;27703;51.980;5.848;2023-03-19T15:43:36;7.47;;;5.57;;
42018;SDS011;27703;51.980;5.848;2023-03-19T15:46:04;9.77;;;6.32;;
42018;SDS011;27703;51.980;5.848;2023-03-19T15:48:50;9.30;;;5.72;;
42018;SDS011;27703;51.980;5.848;2023-03-19T15:51:42;11.98;;;7.03;;
42018;SDS011;27703;51.980;5.848;2023-03-19T15:54:10;9.95;;;7.05;;
42018;SDS011;27703;51.980;5.848;2023-03-19T15:56:35;9.25;;;6.65;;
42018;SDS011;27703;51.980;5.848;2023-03-19T15:59:01;12.13;;;6.47;;
42018;SDS011;27703;51.980;5.848;2023-03-19T16:01:27;10.40;;;5.93;;
42018;SDS011;27703;51.980;5.848;2023-03-19T16:04:00;8.77;;;6.32;;
42018;SDS011;27703;51.980;5.848;2023-03-19T16:06:31;9.80;;;6.35;;
42018;SDS011;27703;51.980;5.848;2023-03-19T16:11:45;9.93;;;6.05;;
42018;SDS011;27703;51.980;5.848;2023-03-19T16:16:44;9.60;;;5.30;;
42018;SDS011;27703;51.980;5.848;2023-03-19T16:19:26;8.18;;;5.00;;
42018;SDS011;27703;51.980;5.848;2023-03-19T16:21:57;15.25;;;6.15;;
42018;SDS011;27703;51.980;5.848;2023-03-19T16:24:24;12.90;;;6.75;;
42018;SDS011;27703;51.980;5.848;2023-03-19T16:26:58;9.63;;;6.32;;
42018;SDS011;27703;51.980;5.848;2023-03-19T16:29:48;9.13;;;5.72;;
42018;SDS011;27703;51.980;5.848;2023-03-19T16:32:20;7.82;;;5.47;;
42018;SDS011;27703;51.980;5.848;2023-03-19T16:34:52;7.82;;;5.05;;
42018;SDS011;27703;51.980;5.848;2023-03-19T16:39:53;10.27;;;5.53;;
42018;SDS011;27703;51.980;5.848;2023-03-19T16:45:01;9.68;;;6.32;;
42018;SDS011;27703;51.980;5.848;2023-03-19T16:47:43;11.63;;;6.18;;